Sneek, Netherlands
Current Conditions -  °F | °C
As of 11:55 AM on Wednesday 22 Oct 2014 (Local Time) from EHLW Reporting Station
Broken Clouds Broken Clouds  
Wind Chill: 52°   Ceiling: 5300
Heat Index: 52°   Visibility: 6mi
Dew Point: 45°   Wind: 29mph
Humidity: 76%   Direction: 330°NNW
Pressure: 29.97"   Gusts: 40mph
Location:  53.03°N, 5.66°E
Report Text: EHLW 220955Z AUTO 33025G35KT 9999 FEW031 SCT036 BKN053 11/07 Q1015 BLU 32020G35KT 9999 FEW022CB BKN040 TEMPO 33025G38KT 5000 SHRA SCT022CB BKN030
Loading
Personal Weather Stations






























Interactive Weather Map
Tropical Storm Tracking
New forecast layout! Learn more

10-Day Weather Forecast

Advertisements
Track Severe Weather on mobile